sensor_id;sensor_type;location;lat;lon;timestamp;pressure;altitude;pressure_sealevel;temperature;humidity
69737;BME280;64476;55.004;73.342;2023-03-15T00:07:14;100220.31;;;-3.05;53.67
69737;BME280;64476;55.004;73.342;2023-03-15T00:10:25;100025.16;;;-4.20;53.45
69737;BME280;64476;55.004;73.342;2023-03-15T00:13:33;100171.63;;;-3.23;53.67
69737;BME280;64476;55.004;73.342;2023-03-15T00:16:42;100224.25;;;-2.82;53.05
69737;BME280;64476;55.004;73.342;2023-03-15T00:19:50;100140.03;;;-3.25;52.64
69737;BME280;64476;55.004;73.342;2023-03-15T00:23:08;100230.38;;;-2.68;52.71
69737;BME280;64476;55.004;73.342;2023-03-15T00:26:12;100235.91;;;-2.60;52.47
69737;BME280;64476;55.004;73.342;2023-03-15T00:29:14;100217.84;;;-2.59;52.30
69737;BME280;64476;55.004;73.342;2023-03-15T00:32:20;100208.78;;;-2.50;52.76
69737;BME280;64476;55.004;73.342;2023-03-15T00:35:23;100206.88;;;-2.46;52.22
69737;BME280;64476;55.004;73.342;2023-03-15T00:38:28;100218.22;;;-2.35;52.34
69737;BME280;64476;55.004;73.342;2023-03-15T00:41:30;100196.66;;;-2.48;52.04
69737;BME280;64476;55.004;73.342;2023-03-15T00:44:32;100195.59;;;-2.60;52.63
69737;BME280;64476;55.004;73.342;2023-03-15T00:48:11;100161.88;;;-2.85;52.42
69737;BME280;64476;55.004;73.342;2023-03-15T00:51:45;100138.56;;;-3.14;52.52
69737;BME280;64476;55.004;73.342;2023-03-15T00:54:54;100150.63;;;-3.16;52.32
69737;BME280;64476;55.004;73.342;2023-03-15T00:58:06;100103.88;;;-3.38;52.86
69737;BME280;64476;55.004;73.342;2023-03-15T01:01:17;100094.69;;;-3.27;52.86
69737;BME280;64476;55.004;73.342;2023-03-15T01:04:50;100107.47;;;-3.25;52.61
69737;BME280;64476;55.004;73.342;2023-03-15T01:08:07;100150.16;;;-2.91;52.81
69737;BME280;64476;55.004;73.342;2023-03-15T01:11:17;100072.56;;;-3.29;52.41
69737;BME280;64476;55.004;73.342;2023-03-15T01:14:19;100036.25;;;-3.39;52.76
69737;BME280;64476;55.004;73.342;2023-03-15T01:17:21;100090.88;;;-3.04;52.73
69737;BME280;64476;55.004;73.342;2023-03-15T01:20:25;100109.28;;;-2.95;52.25
69737;BME280;64476;55.004;73.342;2023-03-15T01:23:26;100099.47;;;-3.05;52.55
69737;BME280;64476;55.004;73.342;2023-03-15T01:26:28;100107.78;;;-2.99;52.52
69737;BME280;64476;55.004;73.342;2023-03-15T01:29:40;100025.41;;;-3.60;51.86
69737;BME280;64476;55.004;73.342;2023-03-15T01:32:47;100139.03;;;-3.23;51.78
69737;BME280;64476;55.004;73.342;2023-03-15T01:35:58;99986.66;;;-4.20;52.13
69737;BME280;64476;55.004;73.342;2023-03-15T01:39:03;100065.34;;;-3.70;53.02
69737;BME280;64476;55.004;73.342;2023-03-15T01:42:21;100069.47;;;-3.67;52.77
69737;BME280;64476;55.004;73.342;2023-03-15T01:49:36;100069.47;;;-3.67;53.15
69737;BME280;64476;55.004;73.342;2023-03-15T01:52:40;100030.84;;;-3.82;53.39
69737;BME280;64476;55.004;73.342;2023-03-15T01:55:52;100089.28;;;-3.54;53.20
69737;BME280;64476;55.004;73.342;2023-03-15T01:59:14;100062.94;;;-3.57;53.19
69737;BME280;64476;55.004;73.342;2023-03-15T02:02:23;100059.03;;;-3.64;52.79
69737;BME280;64476;55.004;73.342;2023-03-15T02:05:41;100064.00;;;-3.45;52.41
69737;BME280;64476;55.004;73.342;2023-03-15T02:08:56;100092.72;;;-3.21;52.43
69737;BME280;64476;55.004;73.342;2023-03-15T02:12:09;100096.94;;;-3.20;52.33
69737;BME280;64476;55.004;73.342;2023-03-15T02:15:12;100082.34;;;-3.20;52.21
69737;BME280;64476;55.004;73.342;2023-03-15T02:22:58;100020.91;;;-3.56;52.28
69737;BME280;64476;55.004;73.342;2023-03-15T02:29:16;100071.38;;;-3.23;52.66
69737;BME280;64476;55.004;73.342;2023-03-15T02:32:17;100067.00;;;-3.21;52.16
69737;BME280;64476;55.004;73.342;2023-03-15T02:35:24;100042.16;;;-3.37;52.15
69737;BME280;64476;55.004;73.342;2023-03-15T02:38:40;99951.69;;;-4.05;52.39
69737;BME280;64476;55.004;73.342;2023-03-15T02:41:45;100051.16;;;-3.45;52.03
69737;BME280;64476;55.004;73.342;2023-03-15T02:44:49;100063.13;;;-3.44;52.02
69737;BME280;64476;55.004;73.342;2023-03-15T02:47:52;100071.00;;;-3.47;52.03
69737;BME280;64476;55.004;73.342;2023-03-15T02:50:53;100080.50;;;-3.49;52.29
69737;BME280;64476;55.004;73.342;2023-03-15T03:23:41;100004.66;;;-4.04;53.90
69737;BME280;64476;55.004;73.342;2023-03-15T03:26:47;100052.97;;;-3.63;54.17
69737;BME280;64476;55.004;73.342;2023-03-15T03:34:16;99961.00;;;-4.20;54.85
69737;BME280;64476;55.004;73.342;2023-03-15T03:38:15;99965.44;;;-3.90;55.07
69737;BME280;64476;55.004;73.342;2023-03-15T03:41:31;100035.28;;;-3.36;54.58
69737;BME280;64476;55.004;73.342;2023-03-15T03:49:16;99990.09;;;-3.56;54.94
69737;BME280;64476;55.004;73.342;2023-03-15T03:52:19;100052.88;;;-2.98;54.74
69737;BME280;64476;55.004;73.342;2023-03-15T04:08:41;100047.84;;;-2.70;53.78
69737;BME280;64476;55.004;73.342;2023-03-15T04:11:47;100036.72;;;-2.70;54.44
69737;BME280;64476;55.004;73.342;2023-03-15T04:14:50;100041.41;;;-2.77;54.32
69737;BME280;64476;55.004;73.342;2023-03-15T04:18:07;100049.44;;;-2.67;54.03
69737;BME280;64476;55.004;73.342;2023-03-15T04:21:19;100020.81;;;-2.77;53.89
69737;BME280;64476;55.004;73.342;2023-03-15T04:24:30;99928.34;;;-3.39;53.62
69737;BME280;64476;55.004;73.342;2023-03-15T04:28:33;100040.31;;;-2.73;53.65
69737;BME280;64476;55.004;73.342;2023-03-15T04:36:44;99982.03;;;-2.88;53.09
69737;BME280;64476;55.004;73.342;2023-03-15T04:39:51;100031.97;;;-2.62;53.08
69737;BME280;64476;55.004;73.342;2023-03-15T04:43:11;100031.63;;;-2.56;52.69
69737;BME280;64476;55.004;73.342;2023-03-15T04:51:24;100003.31;;;-2.56;52.28
69737;BME280;64476;55.004;73.342;2023-03-15T04:55:01;100019.97;;;-2.47;51.92
69737;BME280;64476;55.004;73.342;2023-03-15T04:58:44;100003.78;;;-2.49;51.94
69737;BME280;64476;55.004;73.342;2023-03-15T05:02:01;100002.78;;;-2.47;51.67
69737;BME280;64476;55.004;73.342;2023-03-15T05:05:16;99985.88;;;-2.37;51.91
69737;BME280;64476;55.004;73.342;2023-03-15T05:12:33;99942.88;;;-2.63;51.40
69737;BME280;64476;55.004;73.342;2023-03-15T05:16:10;99964.94;;;-2.45;51.14
69737;BME280;64476;55.004;73.342;2023-03-15T05:19:29;100026.88;;;-2.05;51.51
69737;BME280;64476;55.004;73.342;2023-03-15T05:23:17;100031.94;;;-2.03;51.43
69737;BME280;64476;55.004;73.342;2023-03-15T05:26:49;100024.69;;;-2.25;51.81
69737;BME280;64476;55.004;73.342;2023-03-15T05:30:10;100027.44;;;-2.28;51.37
69737;BME280;64476;55.004;73.342;2023-03-15T05:33:46;100041.31;;;-2.17;51.76
69737;BME280;64476;55.004;73.342;2023-03-15T05:40:59;100034.41;;;-2.16;51.42
69737;BME280;64476;55.004;73.342;2023-03-15T05:44:15;100040.78;;;-2.08;51.67
69737;BME280;64476;55.004;73.342;2023-03-15T05:48:43;100043.88;;;-2.02;51.43
69737;BME280;64476;55.004;73.342;2023-03-15T05:52:31;100032.94;;;-2.06;51.57
69737;BME280;64476;55.004;73.342;2023-03-15T05:55:46;100034.16;;;-1.97;52.24
69737;BME280;64476;55.004;73.342;2023-03-15T06:00:07;100021.00;;;-1.93;51.31
69737;BME280;64476;55.004;73.342;2023-03-15T06:03:49;100022.16;;;-1.70;51.05
69737;BME280;64476;55.004;73.342;2023-03-15T06:06:58;100032.63;;;-1.59;51.16
69737;BME280;64476;55.004;73.342;2023-03-15T06:10:16;100035.84;;;-1.55;50.91
69737;BME280;64476;55.004;73.342;2023-03-15T06:13:18;99982.63;;;-1.83;50.60
69737;BME280;64476;55.004;73.342;2023-03-15T06:16:26;99951.38;;;-1.91;50.37
69737;BME280;64476;55.004;73.342;2023-03-15T06:19:31;100033.25;;;-1.41;50.35
69737;BME280;64476;55.004;73.342;2023-03-15T06:23:06;100040.00;;;-1.52;50.81
69737;BME280;64476;55.004;73.342;2023-03-15T06:30:19;99945.81;;;-2.41;51.06
69737;BME280;64476;55.004;73.342;2023-03-15T06:37:39;99970.09;;;-2.31;50.94
69737;BME280;64476;55.004;73.342;2023-03-15T06:41:13;100044.88;;;-1.76;51.19
69737;BME280;64476;55.004;73.342;2023-03-15T06:44:20;100011.81;;;-1.97;51.29
69737;BME280;64476;55.004;73.342;2023-03-15T06:47:37;100061.44;;;-1.66;50.82
69737;BME280;64476;55.004;73.342;2023-03-15T06:50:40;99898.75;;;-2.57;51.15
69737;BME280;64476;55.004;73.342;2023-03-15T06:53:42;100060.31;;;-1.48;51.12
69737;BME280;64476;55.004;73.342;2023-03-15T06:56:44;100057.09;;;-1.51;50.79
69737;BME280;64476;55.004;73.342;2023-03-15T07:03:57;100004.88;;;-1.68;50.71
69737;BME280;64476;55.004;73.342;2023-03-15T07:07:03;99937.88;;;-2.09;50.41
69737;BME280;64476;55.004;73.342;2023-03-15T07:10:21;100034.66;;;-1.49;50.57
69737;BME280;64476;55.004;73.342;2023-03-15T07:13:22;100034.25;;;-1.43;50.48
69737;BME280;64476;55.004;73.342;2023-03-15T07:16:24;100049.97;;;-1.34;50.73
69737;BME280;64476;55.004;73.342;2023-03-15T07:19:26;100056.31;;;-1.25;50.21
69737;BME280;64476;55.004;73.342;2023-03-15T07:22:37;100037.31;;;-1.51;50.53
69737;BME280;64476;55.004;73.342;2023-03-15T07:25:39;99926.69;;;-2.22;51.22
69737;BME280;64476;55.004;73.342;2023-03-15T07:29:13;99999.81;;;-1.84;51.16
69737;BME280;64476;55.004;73.342;2023-03-15T07:32:19;100073.03;;;-1.45;51.50
69737;BME280;64476;55.004;73.342;2023-03-15T07:35:21;100062.53;;;-1.56;51.37
69737;BME280;64476;55.004;73.342;2023-03-15T07:38:33;100051.72;;;-1.75;51.93
69737;BME280;64476;55.004;73.342;2023-03-15T07:41:35;100055.66;;;-1.70;51.79
69737;BME280;64476;55.004;73.342;2023-03-15T07:44:46;100004.81;;;-2.09;51.73
69737;BME280;64476;55.004;73.342;2023-03-15T07:47:52;100055.19;;;-1.62;51.80
69737;BME280;64476;55.004;73.342;2023-03-15T07:55:16;100032.66;;;-1.73;51.51
69737;BME280;64476;55.004;73.342;2023-03-15T07:58:23;99994.97;;;-1.88;51.18
69737;BME280;64476;55.004;73.342;2023-03-15T08:01:26;99995.25;;;-2.07;51.88
69737;BME280;64476;55.004;73.342;2023-03-15T08:04:38;100043.81;;;-2.15;51.90
69737;BME280;64476;55.004;73.342;2023-03-15T08:07:39;100048.84;;;-2.28;52.34
69737;BME280;64476;55.004;73.342;2023-03-15T08:10:43;100052.97;;;-2.25;52.93
69737;BME280;64476;55.004;73.342;2023-03-15T08:14:16;100063.47;;;-2.14;52.74
69737;BME280;64476;55.004;73.342;2023-03-15T08:21:00;100035.59;;;-2.36;53.04
69737;BME280;64476;55.004;73.342;2023-03-15T08:24:02;100037.69;;;-2.43;52.99
69737;BME280;64476;55.004;73.342;2023-03-15T08:27:04;100041.22;;;-2.74;53.59
69737;BME280;64476;55.004;73.342;2023-03-15T08:30:18;99981.06;;;-3.32;53.98
69737;BME280;64476;55.004;73.342;2023-03-15T08:37:09;99944.66;;;-3.24;54.12
69737;BME280;64476;55.004;73.342;2023-03-15T08:44:48;99987.91;;;-2.56;53.37
69737;BME280;64476;55.004;73.342;2023-03-15T08:47:56;100044.06;;;-2.20;53.53
69737;BME280;64476;55.004;73.342;2023-03-15T08:51:05;99994.56;;;-2.82;54.26
69737;BME280;64476;55.004;73.342;2023-03-15T08:59:13;100054.50;;;-2.51;54.48
69737;BME280;64476;55.004;73.342;2023-03-15T09:02:15;100065.94;;;-2.41;54.30
69737;BME280;64476;55.004;73.342;2023-03-15T09:05:24;100083.31;;;-2.31;54.21
69737;BME280;64476;55.004;73.342;2023-03-15T09:08:30;100006.56;;;-2.83;53.54
69737;BME280;64476;55.004;73.342;2023-03-15T09:11:39;100047.75;;;-2.68;54.23
69737;BME280;64476;55.004;73.342;2023-03-15T09:18:52;100077.19;;;-2.58;54.06
69737;BME280;64476;55.004;73.342;2023-03-15T09:21:54;100077.72;;;-2.67;54.59
69737;BME280;64476;55.004;73.342;2023-03-15T09:28:40;100092.06;;;-2.63;54.11
69737;BME280;64476;55.004;73.342;2023-03-15T09:32:13;99956.94;;;-3.45;54.43
69737;BME280;64476;55.004;73.342;2023-03-15T09:35:17;100014.53;;;-3.17;54.57
69737;BME280;64476;55.004;73.342;2023-03-15T09:38:20;100101.75;;;-2.52;54.91
69737;BME280;64476;55.004;73.342;2023-03-15T09:52:32;100129.84;;;-3.11;55.58
69737;BME280;64476;55.004;73.342;2023-03-15T09:55:36;100108.13;;;-3.21;55.48
69737;BME280;64476;55.004;73.342;2023-03-15T10:03:15;100135.47;;;-3.05;54.90
69737;BME280;64476;55.004;73.342;2023-03-15T10:06:25;100116.75;;;-3.22;55.20
69737;BME280;64476;55.004;73.342;2023-03-15T10:09:31;100121.13;;;-3.40;55.23
69737;BME280;64476;55.004;73.342;2023-03-15T10:12:37;100117.97;;;-3.45;55.93
69737;BME280;64476;55.004;73.342;2023-03-15T10:20:04;100053.47;;;-3.72;55.98
69737;BME280;64476;55.004;73.342;2023-03-15T10:31:01;100120.97;;;-3.21;55.48
69737;BME280;64476;55.004;73.342;2023-03-15T10:38:51;100157.88;;;-3.07;54.97
69737;BME280;64476;55.004;73.342;2023-03-15T10:41:53;100119.91;;;-3.33;55.39
69737;BME280;64476;55.004;73.342;2023-03-15T10:49:38;100157.84;;;-3.38;55.34
69737;BME280;64476;55.004;73.342;2023-03-15T10:52:48;100171.13;;;-3.63;55.65
69737;BME280;64476;55.004;73.342;2023-03-15T10:55:59;100182.03;;;-3.76;56.78
69737;BME280;64476;55.004;73.342;2023-03-15T10:59:01;100142.50;;;-4.06;56.63
69737;BME280;64476;55.004;73.342;2023-03-15T11:06:46;100183.56;;;-3.89;56.55
69737;BME280;64476;55.004;73.342;2023-03-15T11:10:00;100173.97;;;-3.85;56.08
69737;BME280;64476;55.004;73.342;2023-03-15T11:13:11;100194.41;;;-3.66;57.24
69737;BME280;64476;55.004;73.342;2023-03-15T11:16:49;100171.06;;;-3.79;56.37
69737;BME280;64476;55.004;73.342;2023-03-15T11:20:30;100193.25;;;-3.61;56.06
69737;BME280;64476;55.004;73.342;2023-03-15T11:23:47;100094.22;;;-4.33;56.40
69737;BME280;64476;55.004;73.342;2023-03-15T11:26:52;100180.13;;;-3.72;56.43
69737;BME280;64476;55.004;73.342;2023-03-15T11:29:56;100195.22;;;-3.66;56.21
69737;BME280;64476;55.004;73.342;2023-03-15T11:33:06;100197.22;;;-3.88;56.83
69737;BME280;64476;55.004;73.342;2023-03-15T11:53:01;100133.44;;;-4.65;57.54
69737;BME280;64476;55.004;73.342;2023-03-15T12:03:42;100189.53;;;-4.06;57.26
69737;BME280;64476;55.004;73.342;2023-03-15T12:06:44;100202.94;;;-4.01;57.24
69737;BME280;64476;55.004;73.342;2023-03-15T12:10:46;100226.53;;;-3.92;57.44
69737;BME280;64476;55.004;73.342;2023-03-15T12:22:24;100198.44;;;-3.95;56.88
69737;BME280;64476;55.004;73.342;2023-03-15T23:18:09;100755.94;;;-3.06;57.66
69737;BME280;64476;55.004;73.342;2023-03-15T23:21:13;100717.38;;;-3.24;58.10
69737;BME280;64476;55.004;73.342;2023-03-15T23:24:15;100772.50;;;-2.92;58.03
69737;BME280;64476;55.004;73.342;2023-03-15T23:27:19;100672.50;;;-3.57;57.52
69737;BME280;64476;55.004;73.342;2023-03-15T23:34:47;100789.38;;;-2.87;57.55
69737;BME280;64476;55.004;73.342;2023-03-15T23:38:20;100781.19;;;-2.95;57.25
69737;BME280;64476;55.004;73.342;2023-03-15T23:41:22;100766.59;;;-2.94;57.46
69737;BME280;64476;55.004;73.342;2023-03-15T23:48:44;100813.66;;;-2.73;57.06
